Time;durP1;ratioP1;P1;durP2;ratioP2;P2;SDS_P1;SDS_P2;PMS_P1;PMS_P2;Temp;Humidity;BMP_temperature;BMP_pressure;BME280_temperature;BME280_humidity;BME280_pressure;Samples;Min_cycle;Max_cycle;Signal;HPM_P1;HPM_P2
2020/12/29 00:01:44;;;;;;;13.27;8.25;;;4.10;92.80;;;;;;4970128;28;20030;-75
2020/12/29 00:04:12;;;;;;;12.52;7.55;;;4.10;92.80;;;;;;4966944;28;20583;-76
2020/12/29 00:06:57;;;;;;;13.60;8.25;;;4.10;92.90;;;;;;4954259;28;20113;-76
2020/12/29 00:09:27;;;;;;;15.00;8.68;;;4.10;92.80;;;;;;4981176;28;20033;-75
2020/12/29 00:11:54;;;;;;;13.60;7.65;;;4.10;92.80;;;;;;4970473;28;20031;-75
2020/12/29 00:14:20;;;;;;;11.93;7.32;;;4.10;92.80;;;;;;4956244;28;20528;-75
2020/12/29 00:16:46;;;;;;;12.43;7.47;;;4.10;92.60;;;;;;4988769;28;20462;-74
2020/12/29 00:19:14;;;;;;;12.93;7.55;;;4.10;92.80;;;;;;4972787;28;20540;-74
2020/12/29 00:21:41;;;;;;;11.93;7.47;;;4.00;92.70;;;;;;4986625;28;20498;-74
2020/12/29 00:24:08;;;;;;;11.35;6.80;;;4.00;92.80;;;;;;4974999;28;20053;-74
2020/12/29 00:26:33;;;;;;;11.48;7.47;;;4.00;92.80;;;;;;4973093;28;20041;-74
2020/12/29 00:28:59;;;;;;;10.20;6.43;;;4.00;92.80;;;;;;4951007;28;20026;-74
2020/12/29 00:31:25;;;;;;;10.30;6.88;;;3.90;92.80;;;;;;4970288;28;20033;-75
2020/12/29 00:33:54;;;;;;;11.18;6.70;;;4.00;92.80;;;;;;4979172;28;20038;-74
2020/12/29 00:36:20;;;;;;;10.00;6.45;;;3.90;92.70;;;;;;4970514;28;20398;-75
2020/12/29 00:38:46;;;;;;;9.98;6.30;;;3.90;92.80;;;;;;4987638;28;20030;-75
2020/12/29 00:41:13;;;;;;;8.90;5.95;;;3.90;92.80;;;;;;4971331;28;20033;-74
2020/12/29 00:43:39;;;;;;;8.70;5.82;;;3.90;92.90;;;;;;4971977;28;20429;-74
2020/12/29 00:46:10;;;;;;;11.65;6.15;;;3.80;92.70;;;;;;4970033;28;20162;-75
2020/12/29 00:48:36;;;;;;;8.00;5.63;;;3.80;92.50;;;;;;4969694;28;20034;-75
2020/12/29 00:51:07;;;;;;;9.48;5.85;;;3.80;92.60;;;;;;4972727;28;20034;-74
2020/12/29 00:53:34;;;;;;;10.90;6.50;;;3.70;92.60;;;;;;4971367;28;20490;-74
2020/12/29 00:56:01;;;;;;;12.02;6.22;;;3.70;92.70;;;;;;4978388;28;20524;-74
2020/12/29 00:58:28;;;;;;;8.32;5.47;;;3.70;92.70;;;;;;4971043;28;20025;-74
2020/12/29 01:00:54;;;;;;;9.32;5.47;;;3.60;92.70;;;;;;4971139;28;20034;-74
2020/12/29 01:03:20;;;;;;;10.18;6.40;;;3.60;92.50;;;;;;4987187;28;20030;-74
2020/12/29 01:05:46;;;;;;;8.30;5.95;;;3.60;92.90;;;;;;4988830;28;20044;-75
2020/12/29 01:08:12;;;;;;;10.32;6.47;;;3.50;92.80;;;;;;4970383;28;20113;-75
2020/12/29 01:10:39;;;;;;;10.45;6.47;;;3.50;92.90;;;;;;4969616;28;20499;-74
2020/12/29 01:13:06;;;;;;;10.70;6.30;;;3.50;92.70;;;;;;4970178;28;20030;-74
2020/12/29 01:15:32;;;;;;;9.82;6.40;;;3.50;92.80;;;;;;4970182;28;20405;-74
2020/12/29 01:17:58;;;;;;;7.70;5.80;;;3.50;92.70;;;;;;4987915;28;20026;-75
2020/12/29 01:20:25;;;;;;;8.95;6.15;;;3.50;92.80;;;;;;4985751;28;20037;-75
2020/12/29 01:22:54;;;;;;;10.35;6.63;;;3.40;92.60;;;;;;4965466;28;20030;-75
2020/12/29 01:25:21;;;;;;;10.45;6.40;;;3.40;92.80;;;;;;4967218;28;20129;-75
2020/12/29 01:27:47;;;;;;;11.73;7.75;;;3.40;92.80;;;;;;4988224;28;20030;-74
2020/12/29 01:30:14;;;;;;;10.70;6.55;;;3.40;93.00;;;;;;4966004;28;20030;-74
2020/12/29 01:32:39;;;;;;;10.02;6.25;;;3.30;92.90;;;;;;4974989;28;20627;-74
2020/12/29 01:35:06;;;;;;;10.68;6.80;;;3.30;93.00;;;;;;4988732;28;20036;-75
2020/12/29 01:37:32;;;;;;;11.88;7.35;;;3.30;92.90;;;;;;4969770;28;20029;-74
2020/12/29 01:39:58;;;;;;;11.13;6.78;;;3.30;92.90;;;;;;4951676;28;20030;-74
2020/12/29 01:42:24;;;;;;;11.35;6.82;;;3.30;92.80;;;;;;4968135;28;20085;-75
2020/12/29 01:44:50;;;;;;;10.73;6.82;;;3.30;92.90;;;;;;4970657;28;20037;-75
2020/12/29 01:47:16;;;;;;;12.68;7.72;;;3.30;93.00;;;;;;4987899;28;20129;-74
2020/12/29 01:49:43;;;;;;;11.25;7.10;;;3.30;93.10;;;;;;4976791;28;21166;-74
2020/12/29 01:52:09;;;;;;;14.00;7.97;;;3.20;93.10;;;;;;4970352;28;20435;-74
2020/12/29 01:54:35;;;;;;;12.38;7.70;;;3.20;93.20;;;;;;4986111;28;20052;-74
2020/12/29 01:57:00;;;;;;;12.82;8.15;;;3.20;92.90;;;;;;4957090;28;20474;-75
2020/12/29 01:59:26;;;;;;;10.82;7.28;;;3.20;93.10;;;;;;4988989;28;20034;-75
2020/12/29 02:01:53;;;;;;;13.20;8.18;;;3.20;93.00;;;;;;4949285;28;20485;-75
2020/12/29 02:04:19;;;;;;;11.90;7.40;;;3.20;93.10;;;;;;4980341;28;20026;-74
2020/12/29 02:06:45;;;;;;;12.23;7.30;;;3.20;93.10;;;;;;4967714;28;20034;-74
2020/12/29 02:09:14;;;;;;;11.80;7.90;;;3.20;93.00;;;;;;4965609;28;20026;-74
2020/12/29 02:11:39;;;;;;;11.80;7.38;;;3.20;93.00;;;;;;4959276;28;20109;-75
2020/12/29 02:14:08;;;;;;;12.10;7.88;;;3.20;93.30;;;;;;4987968;28;20507;-74
2020/12/29 02:16:41;;;;;;;9.75;6.75;;;3.20;93.20;;;;;;4951066;28;20401;-74
2020/12/29 02:19:08;;;;;;;10.88;7.30;;;3.10;93.20;;;;;;4970922;28;20113;-75
2020/12/29 02:21:34;;;;;;;10.90;7.25;;;3.10;93.30;;;;;;4969209;28;20415;-75
2020/12/29 02:24:05;;;;;;;10.20;6.80;;;3.20;93.30;;;;;;4974269;28;20030;-74
2020/12/29 02:26:35;;;;;;;9.97;6.77;;;3.20;93.30;;;;;;4973767;28;20049;-74
2020/12/29 02:29:02;;;;;;;11.30;7.45;;;3.10;93.30;;;;;;4983137;28;20031;-75
2020/12/29 02:31:27;;;;;;;11.38;7.40;;;3.10;93.30;;;;;;4966130;28;20057;-75
2020/12/29 02:33:54;;;;;;;11.40;7.70;;;3.10;93.00;;;;;;4954953;28;20023;-74
2020/12/29 02:36:20;;;;;;;11.32;7.07;;;3.10;93.20;;;;;;4983191;28;20089;-74
2020/12/29 02:38:48;;;;;;;11.95;7.18;;;3.10;93.20;;;;;;4985987;28;20026;-75
2020/12/29 02:41:17;;;;;;;11.88;7.90;;;3.10;93.30;;;;;;4980832;28;20026;-74
2020/12/29 02:43:44;;;;;;;10.57;7.53;;;3.10;93.40;;;;;;4954551;28;20033;-75
2020/12/29 02:46:14;;;;;;;9.80;6.95;;;3.10;93.40;;;;;;5009921;22;20501;-75
2020/12/29 02:48:40;;;;;;;9.18;6.68;;;3.10;93.40;;;;;;4979401;28;20468;-74
2020/12/29 02:51:06;;;;;;;10.63;6.88;;;3.10;93.30;;;;;;5011289;28;20057;-75
2020/12/29 02:53:31;;;;;;;10.40;6.82;;;3.10;93.20;;;;;;5012925;28;20061;-74
2020/12/29 02:56:00;;;;;;;10.18;7.00;;;3.10;93.30;;;;;;4988460;28;20045;-74
2020/12/29 02:58:26;;;;;;;8.32;6.38;;;3.10;93.30;;;;;;4988301;28;20095;-75
2020/12/29 03:00:51;;;;;;;10.10;6.80;;;3.10;93.20;;;;;;4969644;28;20026;-75
2020/12/29 03:03:17;;;;;;;10.27;7.20;;;3.10;93.20;;;;;;5004296;28;20045;-74
2020/12/29 03:05:42;;;;;;;10.43;7.10;;;3.10;93.10;;;;;;4984032;28;20474;-74
2020/12/29 03:08:09;;;;;;;10.35;7.13;;;3.10;93.20;;;;;;5009642;28;20034;-74
2020/12/29 03:10:35;;;;;;;10.48;7.07;;;3.10;93.30;;;;;;5002152;28;20037;-74
2020/12/29 03:13:01;;;;;;;11.23;7.25;;;3.10;93.40;;;;;;4986487;28;20033;-74
2020/12/29 03:15:26;;;;;;;10.38;7.25;;;3.10;93.30;;;;;;4985018;28;20033;-74
2020/12/29 03:17:52;;;;;;;10.73;7.22;;;3.10;93.30;;;;;;4986360;28;20061;-75
2020/12/29 03:20:18;;;;;;;9.88;6.70;;;3.00;93.50;;;;;;4967917;28;20616;-75
2020/12/29 03:22:43;;;;;;;10.38;7.07;;;3.00;93.30;;;;;;4985896;28;20083;-75
2020/12/29 03:25:09;;;;;;;11.15;7.20;;;3.00;93.30;;;;;;4987036;28;20038;-74
2020/12/29 03:27:34;;;;;;;9.32;6.50;;;3.00;93.50;;;;;;4988094;28;20469;-74
2020/12/29 03:30:00;;;;;;;10.30;7.57;;;3.00;93.30;;;;;;5002741;28;20030;-74
2020/12/29 03:32:26;;;;;;;8.90;6.60;;;3.00;93.40;;;;;;5013047;28;20037;-74
2020/12/29 03:34:51;;;;;;;9.27;6.45;;;3.00;93.40;;;;;;4981844;28;20030;-74
2020/12/29 03:37:17;;;;;;;10.45;6.93;;;3.00;93.50;;;;;;4986363;28;20113;-74
2020/12/29 03:39:43;;;;;;;10.00;7.28;;;3.00;93.30;;;;;;4988462;28;20034;-75
2020/12/29 03:42:09;;;;;;;11.18;7.47;;;3.00;93.40;;;;;;4968736;28;20449;-74
2020/12/29 03:44:35;;;;;;;9.77;6.80;;;3.00;93.50;;;;;;4985489;28;20585;-74
2020/12/29 03:47:02;;;;;;;9.23;6.95;;;3.00;93.70;;;;;;5004554;28;20034;-74
2020/12/29 03:49:28;;;;;;;10.35;7.20;;;3.00;93.60;;;;;;4970221;28;20347;-74
2020/12/29 03:51:54;;;;;;;10.13;6.72;;;3.00;93.70;;;;;;4986059;28;20104;-74
2020/12/29 03:54:19;;;;;;;10.93;7.22;;;3.00;93.60;;;;;;4971271;28;20022;-75
2020/12/29 03:56:45;;;;;;;9.50;6.82;;;3.00;93.60;;;;;;4983614;28;20112;-74
2020/12/29 03:59:11;;;;;;;10.52;6.95;;;3.00;93.90;;;;;;4984883;28;20026;-74
2020/12/29 04:01:36;;;;;;;10.88;7.45;;;2.90;93.60;;;;;;5002320;28;20026;-74
2020/12/29 04:04:03;;;;;;;8.68;6.68;;;2.90;93.70;;;;;;4966959;28;20022;-75
2020/12/29 04:06:28;;;;;;;9.52;6.63;;;2.90;93.70;;;;;;4997723;28;20030;-75
2020/12/29 04:08:54;;;;;;;10.85;6.65;;;2.90;93.90;;;;;;5002403;28;20557;-74
2020/12/29 04:11:20;;;;;;;9.90;7.13;;;2.90;93.80;;;;;;4969448;28;20061;-74
2020/12/29 04:13:46;;;;;;;14.27;8.20;;;2.90;93.80;;;;;;4984864;28;20100;-74
2020/12/29 04:16:12;;;;;;;12.15;8.18;;;2.90;93.70;;;;;;4967472;28;20133;-74
2020/12/29 04:18:41;;;;;;;13.27;8.73;;;2.90;93.80;;;;;;4967778;28;20082;-74
2020/12/29 04:21:06;;;;;;;15.90;8.35;;;2.80;93.80;;;;;;4985492;28;20444;-75
2020/12/29 04:23:32;;;;;;;12.30;7.78;;;2.80;93.90;;;;;;4986400;28;20052;-74
2020/12/29 04:25:58;;;;;;;15.25;8.52;;;2.80;94.10;;;;;;4969118;28;20033;-75
2020/12/29 04:28:24;;;;;;;14.95;9.52;;;2.90;93.80;;;;;;4984978;28;20037;-74
2020/12/29 04:30:50;;;;;;;17.27;9.02;;;2.90;93.90;;;;;;4970238;28;20033;-74
2020/12/29 04:33:16;;;;;;;13.30;8.93;;;2.90;93.80;;;;;;5002452;28;20477;-74
2020/12/29 04:35:42;;;;;;;15.15;8.98;;;2.90;93.80;;;;;;4972413;28;20041;-74
2020/12/29 04:38:07;;;;;;;16.40;9.60;;;2.90;93.90;;;;;;4967712;28;20094;-75
2020/12/29 04:40:33;;;;;;;14.05;8.93;;;2.80;93.80;;;;;;4967766;28;20017;-75
2020/12/29 04:43:04;;;;;;;14.68;9.35;;;2.80;93.90;;;;;;4969249;28;20068;-75
2020/12/29 04:45:30;;;;;;;15.40;8.95;;;2.80;93.90;;;;;;5000545;28;20045;-75
2020/12/29 04:47:55;;;;;;;13.65;8.73;;;2.90;93.90;;;;;;5002521;28;20030;-74
2020/12/29 04:50:21;;;;;;;12.93;8.52;;;2.90;93.70;;;;;;4985684;28;20033;-75
2020/12/29 04:52:55;;;;;;;16.67;9.70;;;2.80;93.70;;;;;;4982350;28;20030;-75
2020/12/29 04:55:28;;;;;;;17.10;9.40;;;2.70;93.90;;;;;;5012902;28;20056;-74
2020/12/29 04:57:54;;;;;;;16.90;9.20;;;2.70;94.00;;;;;;4986027;28;20120;-74
2020/12/29 05:00:25;;;;;;;18.02;9.20;;;2.70;94.00;;;;;;4982925;28;20022;-74
2020/12/29 05:02:51;;;;;;;15.63;9.45;;;2.70;94.00;;;;;;4970416;28;20034;-74
2020/12/29 05:05:17;;;;;;;15.18;9.02;;;2.80;94.00;;;;;;4981197;28;20400;-75
2020/12/29 05:07:45;;;;;;;16.08;8.60;;;2.70;93.80;;;;;;4968419;28;20037;-74
2020/12/29 05:10:11;;;;;;;18.73;9.07;;;2.80;93.80;;;;;;4983243;28;20034;-75
2020/12/29 05:12:52;;;;;;;17.92;9.00;;;2.70;94.00;;;;;;5001182;28;20076;-74
2020/12/29 05:15:20;;;;;;;15.53;8.53;;;2.70;94.00;;;;;;5001351;28;20087;-74
2020/12/29 05:17:46;;;;;;;17.52;9.35;;;2.70;94.00;;;;;;4986131;28;20087;-75
2020/12/29 05:20:12;;;;;;;16.00;8.95;;;2.70;94.10;;;;;;4985751;28;20026;-74
2020/12/29 05:22:38;;;;;;;16.08;9.32;;;2.70;94.00;;;;;;4983103;28;20497;-75
2020/12/29 05:25:06;;;;;;;14.95;8.73;;;2.70;94.00;;;;;;4965749;28;20048;-74
2020/12/29 05:27:35;;;;;;;15.90;9.15;;;2.80;94.00;;;;;;4984216;28;20385;-74
2020/12/29 05:30:03;;;;;;;13.90;8.05;;;2.70;94.00;;;;;;4983297;28;20041;-75
2020/12/29 05:32:29;;;;;;;13.55;8.88;;;2.70;94.10;;;;;;4984492;28;20401;-75
2020/12/29 05:34:58;;;;;;;14.25;8.23;;;2.80;94.10;;;;;;4982342;28;20014;-74
2020/12/29 05:37:25;;;;;;;12.75;7.80;;;2.70;94.00;;;;;;4968465;28;20496;-74
2020/12/29 05:39:50;;;;;;;13.73;8.63;;;2.70;94.00;;;;;;5002004;28;20505;-74
2020/12/29 05:42:25;;;;;;;13.52;8.52;;;2.70;94.00;;;;;;5000415;28;20108;-74
2020/12/29 05:44:52;;;;;;;14.10;8.50;;;2.70;94.30;;;;;;4982564;28;20058;-74
2020/12/29 05:47:21;;;;;;;14.43;8.90;;;2.70;94.20;;;;;;4968871;28;20049;-74
2020/12/29 05:49:47;;;;;;;13.35;8.52;;;2.70;94.30;;;;;;4974861;28;20501;-74
2020/12/29 05:52:14;;;;;;;14.18;8.82;;;2.70;94.10;;;;;;4982900;28;20113;-74
2020/12/29 05:54:42;;;;;;;12.02;8.38;;;2.70;94.20;;;;;;4984029;28;20412;-74
2020/12/29 05:57:08;;;;;;;15.27;9.05;;;2.70;94.20;;;;;;4983992;28;20540;-74
2020/12/29 05:59:35;;;;;;;15.88;9.45;;;2.70;94.10;;;;;;4968655;28;20026;-74
2020/12/29 06:02:01;;;;;;;15.05;9.23;;;2.70;94.20;;;;;;4984158;28;20077;-75
2020/12/29 06:04:27;;;;;;;15.70;9.07;;;2.70;94.30;;;;;;4982361;28;20034;-75
2020/12/29 06:06:59;;;;;;;15.38;9.10;;;2.70;94.20;;;;;;4996678;28;20034;-75
2020/12/29 06:09:27;;;;;;;16.67;9.65;;;2.70;94.20;;;;;;4983712;28;20031;-75
2020/12/29 06:11:55;;;;;;;16.50;8.95;;;2.80;94.20;;;;;;4967519;28;20034;-75
2020/12/29 06:14:25;;;;;;;14.13;8.40;;;2.80;94.20;;;;;;4965937;28;20478;-75
2020/12/29 06:16:52;;;;;;;15.02;8.88;;;2.80;94.20;;;;;;4992547;28;20030;-75
2020/12/29 06:19:31;;;;;;;16.23;9.13;;;2.80;94.20;;;;;;4999953;28;20109;-75
2020/12/29 06:22:06;;;;;;;15.10;9.30;;;2.90;94.00;;;;;;4980795;28;20056;-75
2020/12/29 06:24:37;;;;;;;14.18;9.05;;;2.90;94.10;;;;;;4989448;28;20108;-75
2020/12/29 06:27:05;;;;;;;15.65;9.23;;;2.90;94.10;;;;;;4987599;28;20125;-75
2020/12/29 06:29:32;;;;;;;17.60;9.60;;;2.90;94.00;;;;;;4971645;28;20096;-75
2020/12/29 06:32:04;;;;;;;16.00;9.18;;;2.90;94.10;;;;;;4993020;28;20034;-75
2020/12/29 06:34:29;;;;;;;;;;;2.90;94.10;;;;;;4987638;28;20045;-75
2020/12/29 06:36:57;;;;;;;16.73;9.45;;;2.90;94.00;;;;;;5002295;28;19921;-75
2020/12/29 06:39:23;;;;;;;16.77;9.82;;;2.90;94.10;;;;;;5004373;28;20026;-75
2020/12/29 06:41:50;;;;;;;18.00;9.75;;;2.90;94.10;;;;;;5004459;28;20108;-75
2020/12/29 06:44:16;;;;;;;16.98;10.35;;;2.90;94.10;;;;;;4987799;28;20025;-75
2020/12/29 06:46:55;;;;;;;18.85;10.10;;;2.90;94.10;;;;;;4986908;28;20041;-75
2020/12/29 06:49:22;;;;;;;16.20;9.40;;;2.90;94.10;;;;;;4987281;28;20097;-75
2020/12/29 06:52:08;;;;;;;15.90;9.73;;;3.00;94.10;;;;;;4997295;28;20030;-75
2020/12/29 06:54:52;;;;;;;18.75;10.23;;;3.00;94.10;;;;;;5005356;28;20428;-75
2020/12/29 06:57:23;;;;;;;17.88;10.35;;;3.00;94.10;;;;;;5005249;28;20457;-75
2020/12/29 06:59:49;;;;;;;15.05;9.48;;;3.00;94.10;;;;;;4988188;28;20030;-75
2020/12/29 07:02:23;;;;;;;17.58;10.15;;;3.00;94.10;;;;;;4991197;28;20500;-75
2020/12/29 07:04:55;;;;;;;20.90;10.50;;;3.10;94.00;;;;;;4990401;28;20479;-75
2020/12/29 07:07:30;;;;;;;19.75;9.77;;;3.10;94.10;;;;;;4984850;28;20478;-75
2020/12/29 07:10:10;;;;;;;16.50;10.13;;;3.10;94.20;;;;;;4986130;28;20040;-75
2020/12/29 07:12:36;;;;;;;19.70;10.65;;;3.10;94.20;;;;;;4984817;28;20030;-75
2020/12/29 07:15:04;;;;;;;19.55;10.50;;;3.20;94.20;;;;;;4970433;28;20022;-75
2020/12/29 07:17:31;;;;;;;19.10;10.57;;;3.10;94.20;;;;;;4970710;28;20564;-75
2020/12/29 07:19:57;;;;;;;17.77;10.55;;;3.10;94.20;;;;;;4985536;28;20478;-75
2020/12/29 07:22:24;;;;;;;19.42;11.50;;;3.10;94.50;;;;;;4970103;28;20026;-75
2020/12/29 07:24:50;;;;;;;19.52;11.00;;;3.20;94.30;;;;;;4986325;28;20022;-75
2020/12/29 07:27:20;;;;;;;19.33;11.30;;;3.20;94.30;;;;;;4985922;28;20076;-75
2020/12/29 07:29:59;;;;;;;17.73;11.20;;;3.20;94.20;;;;;;4986101;28;20038;-74
2020/12/29 07:32:26;;;;;;;17.75;10.00;;;3.20;94.30;;;;;;4967012;28;20037;-74
2020/12/29 07:34:52;;;;;;;21.23;11.27;;;3.20;94.40;;;;;;4986464;28;20030;-75
2020/12/29 07:37:23;;;;;;;23.05;11.82;;;3.20;94.30;;;;;;4978585;28;20060;-74
2020/12/29 07:39:50;;;;;;;21.67;11.48;;;3.20;94.40;;;;;;4987855;28;20505;-74
2020/12/29 07:42:16;;;;;;;20.40;10.70;;;3.20;94.30;;;;;;5007269;28;20100;-74
2020/12/29 07:44:45;;;;;;;18.98;10.93;;;3.20;94.40;;;;;;4990645;28;20030;-74
2020/12/29 07:47:11;;;;;;;22.60;11.93;;;3.20;94.50;;;;;;4994527;28;20026;-74
2020/12/29 07:49:37;;;;;;;19.60;10.98;;;3.20;94.50;;;;;;4977728;28;20030;-75
2020/12/29 07:52:03;;;;;;;20.00;11.73;;;3.20;94.40;;;;;;5006702;28;20124;-74
2020/12/29 07:54:29;;;;;;;21.10;11.48;;;3.20;94.40;;;;;;4989158;28;20117;-75
2020/12/29 07:56:55;;;;;;;20.40;11.38;;;3.30;94.50;;;;;;4985543;28;20371;-74
2020/12/29 07:59:24;;;;;;;22.40;11.82;;;3.30;94.50;;;;;;4989364;28;20030;-74
2020/12/29 08:01:51;;;;;;;22.40;12.05;;;3.30;94.50;;;;;;4971479;28;20500;-74
2020/12/29 08:04:29;;;;;;;23.88;12.32;;;3.30;94.50;;;;;;4985376;28;20030;-74
2020/12/29 08:06:54;;;;;;;24.00;13.05;;;3.30;94.60;;;;;;4969187;28;20437;-74
2020/12/29 08:09:20;;;;;;;22.67;12.80;;;3.30;94.50;;;;;;4986866;28;20034;-74
2020/12/29 08:11:46;;;;;;;23.50;12.13;;;3.30;94.60;;;;;;4985592;28;20034;-75
2020/12/29 08:14:15;;;;;;;24.05;12.88;;;3.30;94.60;;;;;;4967003;28;20140;-75
2020/12/29 08:16:41;;;;;;;22.27;12.55;;;3.30;94.60;;;;;;4969080;28;20026;-74
2020/12/29 08:19:09;;;;;;;25.00;12.68;;;3.40;94.60;;;;;;4985112;28;20026;-74
2020/12/29 08:21:37;;;;;;;23.88;13.55;;;3.40;94.60;;;;;;4984686;28;20022;-75
2020/12/29 08:24:03;;;;;;;23.52;13.32;;;3.40;94.60;;;;;;4987164;28;20433;-77
2020/12/29 08:26:28;;;;;;;30.75;13.55;;;3.40;94.70;;;;;;4993223;28;20025;-75
2020/12/29 08:28:57;;;;;;;26.48;14.63;;;3.40;94.70;;;;;;4971643;28;20030;-74
2020/12/29 08:31:23;;;;;;;25.38;13.57;;;3.40;94.70;;;;;;5008379;28;20038;-74
2020/12/29 08:33:53;;;;;;;24.30;14.20;;;3.40;94.70;;;;;;4993819;28;20034;-74
2020/12/29 08:36:27;;;;;;;24.65;13.07;;;3.40;94.70;;;;;;4969503;28;20037;-75
2020/12/29 08:39:21;;;;;;;24.92;12.75;;;3.40;94.70;;;;;;4990522;28;20359;-74
2020/12/29 08:41:54;;;;;;;25.13;14.65;;;3.40;94.80;;;;;;4986056;28;20053;-75
2020/12/29 08:44:20;;;;;;;26.55;14.23;;;3.40;94.80;;;;;;4983336;28;20543;-75
2020/12/29 08:46:48;;;;;;;25.98;14.32;;;3.50;95.10;;;;;;5053471;23;20051;-92
2020/12/29 08:49:27;;;;;;;27.83;14.43;;;3.50;94.80;;;;;;5049391;28;20025;-92
2020/12/29 08:51:52;;;;;;;24.25;11.80;;;3.50;94.80;;;;;;5029029;28;20244;-92
2020/12/29 08:54:18;;;;;;;26.27;15.23;;;3.50;95.60;;;;;;5020891;28;20498;-91
2020/12/29 08:56:48;;;;;;;24.65;13.20;;;3.70;95.10;;;;;;5032621;28;20032;-92
2020/12/29 08:59:16;;;;;;;25.65;13.85;;;3.80;94.80;;;;;;5037175;28;20116;-91
2020/12/29 09:01:47;;;;;;;29.85;16.10;;;3.80;94.30;;;;;;5039370;28;20020;-90
2020/12/29 09:04:36;;;;;;;29.27;16.45;;;3.80;94.30;;;;;;5045581;28;20017;-90
2020/12/29 09:07:09;;;;;;;29.20;18.35;;;3.80;94.30;;;;;;5042569;28;20041;-91
2020/12/29 09:09:51;;;;;;;32.67;18.00;;;3.70;94.70;;;;;;5027983;28;20114;-92
2020/12/29 09:12:30;;;;;;;36.35;19.35;;;3.70;94.60;;;;;;5020631;28;20025;-93
2020/12/29 09:14:57;;;;;;;33.50;19.60;;;3.70;94.90;;;;;;5036839;28;20040;-91
2020/12/29 09:17:29;;;;;;;33.42;20.20;;;3.70;94.80;;;;;;5040646;28;20049;-91
2020/12/29 09:20:22;;;;;;;37.15;20.70;;;3.70;94.80;;;;;;5050300;28;20017;-90
2020/12/29 09:22:55;;;;;;;32.72;18.63;;;3.70;94.90;;;;;;5047680;28;20033;-91
2020/12/29 09:25:26;;;;;;;36.28;19.55;;;3.70;94.90;;;;;;5034459;28;20097;-90
2020/12/29 09:28:07;;;;;;;33.30;19.20;;;3.70;94.90;;;;;;5022240;28;20032;-91
2020/12/29 09:30:33;;;;;;;32.90;19.45;;;3.90;94.90;;;;;;5019401;28;20081;-91
2020/12/29 09:32:58;;;;;;;32.83;18.48;;;3.80;94.80;;;;;;5034734;28;20045;-91
2020/12/29 09:35:27;;;;;;;35.35;18.48;;;3.80;94.80;;;;;;5020966;28;20037;-90
2020/12/29 09:37:58;;;;;;;31.00;18.33;;;3.90;94.80;;;;;;5012440;28;20025;-90
2020/12/29 09:40:28;;;;;;;29.08;17.58;;;3.90;94.70;;;;;;5048808;28;20113;-92
2020/12/29 09:42:54;;;;;;;34.38;18.83;;;3.90;94.70;;;;;;5040572;28;20017;-93
2020/12/29 09:45:36;;;;;;;33.97;18.00;;;4.00;94.70;;;;;;5020821;28;20025;-93
2020/12/29 09:48:34;;;;;;;29.38;16.05;;;4.00;94.60;;;;;;5021415;28;20056;-93
2020/12/29 09:53:33;;;;;;;28.08;17.45;;;4.10;94.80;;;;;;5011713;28;20050;-73
2020/12/29 09:55:59;;;;;;;26.13;15.55;;;4.20;94.40;;;;;;4998724;28;20489;-73
2020/12/29 09:58:24;;;;;;;25.42;17.02;;;4.20;94.00;;;;;;5005068;28;20052;-73
2020/12/29 10:00:50;;;;;;;27.90;16.45;;;4.20;94.10;;;;;;4995594;28;20030;-73
2020/12/29 10:03:19;;;;;;;27.90;15.65;;;4.20;94.10;;;;;;5008871;28;20095;-73
2020/12/29 10:05:45;;;;;;;23.42;14.15;;;4.20;94.90;;;;;;4974158;28;20037;-77
2020/12/29 10:08:11;;;;;;;23.55;14.60;;;4.60;94.60;;;;;;4990669;28;20026;-75
2020/12/29 10:10:37;;;;;;;24.70;14.77;;;4.80;93.40;;;;;;4981904;28;20401;-75
2020/12/29 10:13:03;;;;;;;24.35;14.48;;;4.80;92.70;;;;;;4975378;28;20022;-76
2020/12/29 10:15:29;;;;;;;22.65;14.55;;;4.70;93.00;;;;;;4987606;28;20624;-76
2020/12/29 10:17:55;;;;;;;21.95;13.30;;;4.60;93.10;;;;;;5001183;28;20411;-76
2020/12/29 10:20:21;;;;;;;25.40;14.93;;;4.50;92.70;;;;;;4994146;28;20022;-73
2020/12/29 10:22:47;;;;;;;23.48;14.20;;;4.50;93.10;;;;;;4980529;28;20026;-76
2020/12/29 10:25:16;;;;;;;23.90;15.15;;;4.40;93.20;;;;;;4997409;28;20026;-73
2020/12/29 10:27:43;;;;;;;25.88;15.00;;;4.30;93.50;;;;;;5008400;28;20256;-71
2020/12/29 10:30:12;;;;;;;23.30;13.65;;;4.30;93.60;;;;;;4996888;28;20084;-73
2020/12/29 10:32:39;;;;;;;22.52;14.30;;;4.30;93.60;;;;;;4997761;28;20037;-74
2020/12/29 10:35:06;;;;;;;24.58;14.07;;;4.40;93.60;;;;;;4978390;28;20041;-75
2020/12/29 10:37:31;;;;;;;22.38;13.80;;;4.30;93.70;;;;;;5011501;28;20026;-76
2020/12/29 10:39:58;;;;;;;23.05;14.52;;;4.30;93.70;;;;;;4985776;28;20022;-75
2020/12/29 10:42:23;;;;;;;22.88;13.85;;;4.30;93.80;;;;;;4996315;28;20392;-76
2020/12/29 10:44:49;;;;;;;22.17;13.65;;;4.30;93.80;;;;;;4978474;28;20023;-76
2020/12/29 10:47:15;;;;;;;21.85;13.18;;;4.30;93.80;;;;;;5019127;28;20480;-75
2020/12/29 10:49:41;;;;;;;19.42;12.85;;;4.30;93.70;;;;;;4997702;28;20397;-73
2020/12/29 10:52:06;;;;;;;19.27;12.70;;;4.30;93.50;;;;;;5009745;28;20030;-74
2020/12/29 10:54:32;;;;;;;17.92;11.25;;;4.30;93.50;;;;;;4994197;28;20060;-74
2020/12/29 10:56:58;;;;;;;21.58;12.18;;;4.30;93.20;;;;;;5000026;28;20034;-74
2020/12/29 10:59:23;;;;;;;21.35;11.98;;;4.30;93.20;;;;;;5017720;28;20030;-74
2020/12/29 11:01:52;;;;;;;18.98;12.13;;;4.30;93.40;;;;;;5000855;28;20030;-73
2020/12/29 11:04:17;;;;;;;20.70;12.77;;;4.50;92.90;;;;;;4990444;28;20496;-76
2020/12/29 11:06:43;;;;;;;20.42;11.30;;;4.50;92.90;;;;;;5003695;28;20026;-79
2020/12/29 11:09:08;;;;;;;17.63;10.63;;;4.40;92.70;;;;;;5002288;28;20030;-75
2020/12/29 11:11:34;;;;;;;17.35;10.55;;;4.40;93.00;;;;;;5015420;28;20559;-74
2020/12/29 11:14:00;;;;;;;17.35;11.30;;;4.40;92.90;;;;;;5006554;28;20029;-78
2020/12/29 11:16:25;;;;;;;20.98;11.30;;;4.40;92.70;;;;;;5003609;28;20057;-79
2020/12/29 11:18:51;;;;;;;18.77;10.80;;;4.40;92.60;;;;;;4997928;28;20096;-78
2020/12/29 11:21:18;;;;;;;17.08;10.60;;;4.40;92.80;;;;;;5011333;28;20018;-76
2020/12/29 11:23:45;;;;;;;17.80;11.95;;;4.30;92.60;;;;;;4996656;28;20033;-80
2020/12/29 11:26:14;;;;;;;19.58;10.93;;;4.30;92.90;;;;;;5000374;28;20057;-81
2020/12/29 11:28:40;;;;;;;17.13;11.30;;;4.30;92.90;;;;;;4985164;28;20057;-75
2020/12/29 11:31:06;;;;;;;19.00;11.40;;;4.40;92.90;;;;;;4984162;28;20359;-75
2020/12/29 11:33:32;;;;;;;21.33;12.35;;;4.40;92.90;;;;;;4987345;28;20053;-76
2020/12/29 11:35:57;;;;;;;17.38;11.25;;;4.40;92.90;;;;;;5007061;28;20393;-77
2020/12/29 11:38:23;;;;;;;16.92;11.13;;;4.40;92.80;;;;;;4988727;28;20537;-75
2020/12/29 11:40:50;;;;;;;19.10;11.15;;;4.40;92.70;;;;;;4987450;28;20022;-75
2020/12/29 11:43:16;;;;;;;18.35;11.05;;;4.50;92.70;;;;;;5013468;28;20073;-75
2020/12/29 11:45:44;;;;;;;16.92;10.80;;;4.40;92.70;;;;;;5024896;28;20068;-75
2020/12/29 11:48:10;;;;;;;18.20;12.68;;;4.50;92.70;;;;;;4976863;28;20068;-75
2020/12/29 11:50:37;;;;;;;34.45;16.05;;;4.50;92.70;;;;;;5013414;28;20061;-76
2020/12/29 11:53:02;;;;;;;19.52;12.18;;;4.50;92.80;;;;;;4997376;28;20045;-76
2020/12/29 11:55:28;;;;;;;57.75;23.58;;;4.60;92.80;;;;;;4999621;28;20038;-75
2020/12/29 11:57:54;;;;;;;27.73;14.55;;;4.70;92.50;;;;;;5004168;28;20109;-78
2020/12/29 12:00:20;;;;;;;19.30;11.95;;;4.70;92.40;;;;;;4980435;28;20021;-78
2020/12/29 12:02:46;;;;;;;16.42;9.63;;;4.70;92.20;;;;;;5014785;28;20037;-76
2020/12/29 12:05:12;;;;;;;18.90;10.65;;;4.70;92.20;;;;;;5015424;28;20033;-75
2020/12/29 12:07:38;;;;;;;17.27;10.55;;;4.60;92.20;;;;;;5010519;28;20112;-76
2020/12/29 12:10:09;;;;;;;15.30;9.95;;;4.60;92.40;;;;;;4986732;28;20057;-74
2020/12/29 12:12:37;;;;;;;16.47;10.53;;;4.60;92.40;;;;;;4997305;28;20018;-75
2020/12/29 12:15:07;;;;;;;17.33;10.70;;;4.60;92.30;;;;;;4981725;28;20289;-74
2020/12/29 12:17:33;;;;;;;15.77;10.13;;;4.50;92.30;;;;;;5025252;28;20084;-75
2020/12/29 12:19:58;;;;;;;22.33;12.43;;;4.60;92.20;;;;;;4979375;28;20070;-75
2020/12/29 12:22:24;;;;;;;18.25;10.70;;;4.60;92.20;;;;;;5001711;28;20025;-77
2020/12/29 12:24:50;;;;;;;16.88;11.15;;;4.60;92.50;;;;;;4972612;28;20026;-76
2020/12/29 12:27:16;;;;;;;19.85;11.40;;;4.70;92.40;;;;;;5008936;28;20105;-76
2020/12/29 12:29:41;;;;;;;19.20;10.95;;;4.60;92.20;;;;;;5008236;28;20029;-76
2020/12/29 12:32:07;;;;;;;16.13;9.90;;;4.70;92.00;;;;;;4997544;28;20037;-76
2020/12/29 12:34:33;;;;;;;15.95;9.80;;;4.60;92.10;;;;;;4999975;28;20031;-76
2020/12/29 12:36:58;;;;;;;16.00;9.80;;;4.60;92.10;;;;;;4999404;28;20034;-78
2020/12/29 12:39:24;;;;;;;15.38;9.50;;;4.60;92.20;;;;;;4987826;28;20037;-74
2020/12/29 12:41:51;;;;;;;16.90;11.05;;;4.60;92.30;;;;;;4980863;28;20034;-77
2020/12/29 12:44:17;;;;;;;16.38;10.18;;;4.60;92.00;;;;;;5014600;28;20033;-75
2020/12/29 12:46:43;;;;;;;17.15;10.75;;;4.60;92.30;;;;;;5018814;28;20033;-76
2020/12/29 12:49:09;;;;;;;15.75;10.68;;;4.60;92.30;;;;;;5003570;28;20038;-77